createdAt,value
2023-01-13T00:01:13.010Z,7.50
2023-01-13T00:03:40.141Z,6.10
2023-01-13T02:09:06.146Z,4.60
2023-01-13T02:11:53.743Z,5.80
2023-01-13T02:17:15.942Z,9.40
2023-01-13T02:20:02.985Z,8.40
2023-01-13T02:22:51.840Z,7.70
2023-01-13T02:25:24.499Z,8.60
2023-01-13T02:28:05.201Z,8.30
2023-01-13T02:30:54.490Z,8.60
2023-01-13T02:33:36.545Z,7.70
2023-01-13T02:36:22.564Z,8.60
2023-01-13T02:39:02.978Z,8.60
2023-01-13T02:41:56.943Z,8.30
2023-01-13T02:44:27.338Z,7.80
2023-01-13T02:47:06.212Z,8.50
2023-01-13T02:49:40.765Z,8.60
2023-01-13T02:52:11.390Z,8.60
2023-01-13T02:54:38.939Z,8.80
2023-01-13T02:57:08.239Z,9.40
2023-01-13T02:59:35.074Z,8.90
2023-01-13T03:02:02.848Z,8.80
2023-01-13T03:04:45.813Z,8.50
2023-01-13T03:07:38.574Z,8.90
2023-01-13T03:10:11.169Z,9.00
2023-01-13T03:12:48.677Z,8.30
2023-01-13T03:17:48.354Z,8.50
2023-01-13T03:20:18.403Z,8.90
2023-01-13T03:22:59.189Z,9.00
2023-01-13T03:25:28.906Z,8.80
2023-01-13T03:28:04.861Z,8.70
2023-01-13T03:30:44.156Z,8.80
2023-01-13T03:33:12.631Z,9.10
2023-01-13T03:35:41.473Z,9.50
2023-01-13T03:38:33.409Z,8.80
2023-01-13T03:41:25.494Z,8.80
2023-01-13T03:44:14.383Z,9.80
2023-01-13T03:47:00.294Z,10.20
2023-01-13T03:49:35.597Z,9.40
2023-01-13T03:52:05.639Z,10.40
2023-01-13T03:54:34.142Z,8.70
2023-01-13T03:57:07.035Z,9.00
2023-01-13T03:59:38.318Z,9.70
2023-01-13T04:02:10.339Z,9.10
2023-01-13T04:04:41.393Z,9.20
2023-01-13T04:07:40.596Z,8.00
2023-01-13T04:10:08.880Z,9.50
2023-01-13T04:13:00.607Z,9.70
2023-01-13T04:15:36.123Z,9.70
2023-01-13T04:18:30.082Z,9.40
2023-01-13T04:20:58.646Z,8.90
2023-01-13T04:23:25.440Z,8.70
2023-01-13T04:25:52.853Z,9.50
2023-01-13T04:28:20.099Z,8.80
2023-01-13T04:30:47.119Z,8.60
2023-01-13T04:33:15.544Z,9.40
2023-01-13T04:38:12.048Z,7.80
2023-01-13T04:40:39.480Z,8.00
2023-01-13T04:43:06.396Z,9.30
2023-01-13T04:45:33.704Z,8.40
2023-01-13T04:48:00.901Z,9.60
2023-01-13T04:50:27.788Z,9.40
2023-01-13T04:52:54.626Z,9.30
2023-01-13T04:55:22.259Z,9.50
2023-01-13T05:00:18.386Z,8.60
2023-01-13T05:02:45.380Z,8.60
2023-01-13T05:05:12.247Z,8.10
2023-01-13T05:07:41.355Z,8.80
2023-01-13T05:10:09.117Z,7.30
2023-01-13T05:15:40.058Z,7.40
2023-01-13T05:18:07.392Z,8.00
2023-01-13T05:20:34.258Z,7.10
2023-01-13T05:23:19.782Z,6.90
2023-01-13T05:25:47.251Z,8.50
2023-01-13T05:28:14.478Z,7.10
2023-01-13T05:30:45.676Z,7.90
2023-01-13T05:33:14.147Z,7.90
2023-01-13T05:35:42.060Z,7.30
2023-01-13T05:38:09.571Z,7.90
2023-01-13T05:40:59.555Z,8.30
2023-01-13T05:43:26.656Z,7.70
2023-01-13T05:45:57.472Z,7.30
2023-01-13T05:48:38.653Z,8.00
2023-01-13T05:51:06.632Z,7.60
2023-01-13T05:53:34.613Z,8.50
2023-01-13T05:56:05.270Z,9.10
2023-01-13T05:58:32.814Z,7.60
2023-01-13T06:01:04.612Z,6.80
2023-01-13T06:03:32.874Z,7.60
2023-01-13T06:24:18.162Z,8.90
2023-01-13T06:26:46.189Z,8.50
2023-01-13T06:29:14.518Z,10.10
2023-01-13T06:31:41.637Z,9.40
2023-01-13T06:34:13.402Z,9.90
2023-01-13T06:36:43.063Z,9.80
2023-01-13T06:39:10.394Z,8.70
2023-01-13T06:42:14.867Z,9.00
2023-01-13T06:44:42.745Z,8.80
2023-01-13T06:47:09.792Z,8.90
2023-01-13T06:49:36.864Z,9.20
2023-01-13T06:52:07.237Z,9.10
2023-01-13T06:54:34.268Z,8.20
2023-01-13T06:57:02.996Z,8.50
2023-01-13T06:59:33.924Z,8.60
2023-01-13T07:02:01.569Z,9.10
2023-01-13T07:04:28.951Z,11.50
2023-01-13T07:06:56.354Z,11.30
2023-01-13T07:09:24.466Z,10.80
2023-01-13T07:11:52.322Z,11.60
2023-01-13T07:14:38.519Z,11.00
2023-01-13T07:17:05.637Z,10.60
2023-01-13T07:19:32.979Z,11.70
2023-01-13T07:22:00.746Z,9.90
2023-01-13T07:24:28.410Z,9.80
2023-01-13T07:26:55.508Z,10.40
2023-01-13T07:29:22.600Z,10.90
2023-01-13T07:31:50.283Z,10.10
2023-01-13T07:34:17.662Z,9.80
2023-01-13T07:36:44.666Z,11.10
2023-01-13T07:39:11.766Z,11.10
2023-01-13T07:41:57.913Z,11.70
2023-01-13T07:44:27.235Z,10.60
2023-01-13T07:46:54.389Z,9.60
2023-01-13T07:49:21.263Z,11.20
2023-01-13T07:51:49.047Z,9.90
2023-01-13T07:54:16.125Z,10.30
2023-01-13T07:56:44.107Z,9.90
2023-01-13T08:01:38.548Z,9.30
2023-01-13T08:04:05.551Z,8.20
2023-01-13T08:09:00.855Z,8.70
2023-01-13T08:12:52.331Z,9.00
2023-01-13T08:15:23.865Z,7.40
2023-01-13T08:17:50.904Z,8.70
2023-01-13T08:20:18.237Z,5.70
2023-01-13T10:36:12.465Z,3.70
2023-01-13T10:38:44.564Z,4.90
2023-01-13T10:41:20.725Z,6.60
2023-01-13T10:44:09.494Z,6.50
2023-01-13T10:46:51.509Z,7.60
2023-01-13T10:49:32.844Z,8.00
2023-01-13T10:52:00.907Z,6.30
2023-01-13T10:54:28.114Z,7.20
2023-01-13T10:57:23.722Z,7.10
2023-01-13T10:59:54.037Z,7.50
2023-01-13T11:02:32.363Z,7.10
2023-01-13T11:05:21.609Z,7.60
2023-01-13T11:07:58.977Z,7.30
2023-01-13T11:10:31.453Z,6.60
2023-01-13T11:13:00.737Z,7.30
2023-01-13T11:15:39.553Z,8.10
2023-01-13T11:18:22.649Z,8.30
2023-01-13T11:20:49.917Z,8.00
2023-01-13T11:23:36.506Z,8.50
2023-01-13T11:26:08.368Z,8.40
2023-01-13T11:29:19.213Z,8.60
2023-01-13T11:31:52.399Z,7.70
2023-01-13T11:34:31.354Z,7.70
2023-01-13T11:37:08.177Z,7.70
2023-01-13T11:39:45.705Z,8.70
2023-01-13T11:45:08.190Z,6.50
2023-01-13T11:47:36.157Z,7.10
2023-01-13T11:50:06.611Z,7.00
2023-01-13T11:53:17.761Z,7.30
2023-01-13T11:56:27.964Z,7.30
2023-01-13T11:59:23.454Z,8.70
2023-01-13T12:01:54.028Z,7.10
2023-01-13T12:04:41.674Z,7.30
2023-01-13T12:07:17.289Z,7.40
2023-01-13T12:09:56.830Z,10.20
2023-01-13T12:12:43.927Z,12.70
2023-01-13T12:15:22.816Z,12.40
2023-01-13T12:18:21.771Z,10.20
2023-01-13T12:20:55.739Z,9.10
2023-01-13T12:23:54.070Z,8.00
2023-01-13T12:26:21.613Z,9.30
2023-01-13T12:28:52.931Z,8.40
2023-01-13T12:31:21.041Z,8.70
2023-01-13T12:33:52.525Z,9.40
2023-01-13T12:36:42.813Z,8.20
2023-01-13T12:39:39.573Z,7.90
2023-01-13T12:42:27.966Z,6.80
2023-01-13T12:45:26.923Z,7.40
2023-01-13T12:47:55.336Z,7.80
2023-01-13T12:50:22.640Z,7.40
2023-01-13T12:52:50.763Z,8.60
2023-01-13T12:55:20.620Z,8.70
2023-01-13T12:58:12.558Z,7.40
2023-01-13T13:00:40.041Z,8.60
2023-01-13T13:03:11.584Z,7.90
2023-01-13T13:06:09.952Z,8.80
2023-01-13T13:08:50.598Z,9.00
2023-01-13T13:11:53.525Z,8.10
2023-01-13T13:14:40.094Z,8.00
2023-01-13T13:17:29.657Z,8.80
2023-01-13T13:19:57.980Z,8.10
2023-01-13T13:22:35.400Z,8.50
2023-01-13T13:25:03.054Z,8.10
2023-01-13T13:27:50.440Z,8.60
2023-01-13T13:33:27.751Z,7.50
2023-01-13T13:36:04.355Z,7.80
2023-01-13T13:39:15.140Z,8.90
2023-01-13T13:42:02.674Z,9.40
2023-01-13T13:45:02.199Z,8.50
2023-01-13T13:47:38.578Z,8.30
2023-01-13T13:50:15.312Z,8.30
2023-01-13T13:52:54.536Z,8.90
2023-01-13T13:55:26.183Z,9.00
2023-01-13T13:57:55.075Z,8.90
2023-01-13T14:00:26.747Z,9.30
2023-01-13T14:02:58.847Z,8.80
2023-01-13T14:05:36.428Z,9.20
2023-01-13T14:08:13.832Z,9.60
2023-01-13T14:10:42.093Z,9.50
2023-01-13T14:13:26.023Z,9.20
2023-01-13T14:16:08.619Z,9.10
2023-01-13T14:18:47.884Z,10.30
2023-01-13T14:21:26.810Z,9.10
2023-01-13T14:23:55.928Z,8.10
2023-01-13T14:26:32.029Z,9.00
2023-01-13T14:29:33.703Z,10.00
2023-01-13T19:50:35.623Z,6.70
2023-01-13T19:53:02.739Z,10.30
2023-01-13T19:55:31.982Z,9.90
2023-01-13T19:57:59.178Z,12.40
2023-01-13T20:00:26.405Z,12.60
2023-01-13T20:02:53.583Z,12.80
2023-01-13T20:05:22.711Z,12.10
2023-01-13T20:07:50.174Z,12.00
2023-01-13T20:10:18.647Z,12.70
2023-01-13T20:12:45.798Z,11.50
2023-01-13T20:15:13.030Z,10.60
2023-01-13T20:17:41.724Z,11.60
2023-01-13T20:20:10.229Z,10.90
2023-01-13T20:22:38.766Z,11.30
2023-01-13T20:25:06.421Z,11.30
2023-01-13T20:30:00.824Z,10.50
2023-01-13T20:32:27.930Z,11.30
2023-01-13T20:34:55.117Z,8.30
2023-01-13T20:37:23.009Z,10.00
2023-01-13T20:39:50.209Z,11.20
2023-01-13T20:42:29.614Z,11.30
2023-01-13T20:44:57.407Z,10.60
2023-01-13T20:52:19.650Z,10.00
2023-01-13T20:54:46.669Z,9.80
2023-01-13T20:57:13.845Z,8.00
2023-01-13T20:59:40.873Z,10.60
2023-01-13T21:02:12.634Z,11.70
2023-01-13T21:04:40.019Z,10.30
2023-01-13T21:07:07.036Z,11.70
2023-01-13T21:09:34.544Z,11.50
2023-01-13T21:12:20.208Z,11.70
2023-01-13T21:15:06.126Z,11.20
2023-01-13T21:17:52.045Z,10.70
2023-01-13T21:20:19.111Z,11.40
2023-01-13T21:22:47.167Z,11.00
2023-01-13T21:25:15.349Z,12.90
2023-01-13T21:27:44.198Z,12.40
2023-01-13T21:30:15.148Z,11.50
2023-01-13T21:32:43.298Z,12.50
2023-01-13T21:35:10.842Z,11.90
2023-01-13T21:37:38.426Z,11.70
2023-01-13T21:40:07.211Z,11.30
2023-01-13T21:42:53.085Z,12.50
2023-01-13T21:45:38.947Z,12.20
2023-01-13T21:48:07.341Z,11.10
2023-01-13T21:50:34.559Z,11.50
2023-01-13T21:53:02.102Z,12.20
